Time;durP1;ratioP1;P1;durP2;ratioP2;P2;SDS_P1;SDS_P2;PMS_P1;PMS_P2;Temp;Humidity;BMP_temperature;BMP_pressure;BME280_temperature;BME280_humidity;BME280_pressure;Samples;Min_cycle;Max_cycle;Signal;HPM_P1;HPM_P2
2024/03/02 00:01:14;;;;;;;5.03;3.20;;;8.60;99.90;;;;;;5124813;27;20106;-62
2024/03/02 00:03:42;;;;;;;7.22;4.32;;;8.50;99.90;;;;;;5107847;27;20619;-62
2024/03/02 00:06:08;;;;;;;4.70;3.10;;;8.60;99.90;;;;;;5114268;27;20043;-62
2024/03/02 00:08:34;;;;;;;4.25;2.72;;;8.50;99.90;;;;;;5115273;27;20035;-62
2024/03/02 00:11:02;;;;;;;5.75;2.80;;;8.50;99.90;;;;;;5119003;27;20462;-62
2024/03/02 00:13:29;;;;;;;5.77;3.50;;;8.50;99.90;;;;;;5115974;27;20049;-62
2024/03/02 00:15:56;;;;;;;4.90;3.50;;;8.50;99.90;;;;;;5121102;27;20475;-62
2024/03/02 00:18:34;;;;;;;3.08;2.42;;;8.50;99.90;;;;;;5114715;27;20497;-62
2024/03/02 00:21:00;;;;;;;4.65;2.78;;;8.40;99.90;;;;;;5116186;27;20847;-62
2024/03/02 00:23:34;;;;;;;5.65;3.03;;;8.50;99.90;;;;;;5121518;27;20107;-62
2024/03/02 00:26:00;;;;;;;5.05;2.88;;;8.50;99.90;;;;;;5119887;27;20588;-62
2024/03/02 00:28:34;;;;;;;4.43;3.08;;;8.50;99.90;;;;;;5115036;27;20063;-62
2024/03/02 00:31:06;;;;;;;4.30;2.90;;;8.40;99.90;;;;;;5120757;27;20039;-62
2024/03/02 00:33:37;;;;;;;4.10;3.03;;;8.40;99.90;;;;;;5126892;27;20095;-63
2024/03/02 00:36:04;;;;;;;6.70;3.20;;;8.40;99.90;;;;;;5118688;27;20055;-62
2024/03/02 00:38:34;;;;;;;3.80;3.10;;;8.40;99.90;;;;;;5121897;27;20047;-61
2024/03/02 00:41:08;;;;;;;4.45;3.20;;;8.40;99.90;;;;;;5113930;27;20495;-62
2024/03/02 00:43:44;;;;;;;5.43;3.25;;;8.40;99.90;;;;;;5123210;27;20611;-62
2024/03/02 00:46:18;;;;;;;4.80;3.22;;;8.40;99.90;;;;;;5121147;27;20108;-62
2024/03/02 00:48:52;;;;;;;3.85;2.30;;;8.40;99.90;;;;;;5114774;27;20039;-62
2024/03/02 00:51:17;;;;;;;3.20;2.70;;;8.40;99.90;;;;;;5124550;27;20043;-62
2024/03/02 00:53:43;;;;;;;4.32;3.17;;;8.40;99.90;;;;;;5119729;27;20099;-62
2024/03/02 00:56:11;;;;;;;3.33;2.97;;;8.40;99.90;;;;;;5112731;28;20100;-62
2024/03/02 00:58:38;;;;;;;3.28;2.78;;;8.40;99.90;;;;;;5119416;27;20098;-63
2024/03/02 01:01:03;;;;;;;7.18;3.50;;;8.40;99.90;;;;;;5109858;28;20062;-62
2024/03/02 01:03:31;;;;;;;5.38;3.00;;;8.40;99.90;;;;;;5123704;27;20040;-62
2024/03/02 01:05:57;;;;;;;5.68;2.40;;;8.50;99.90;;;;;;5130617;27;20601;-62
2024/03/02 01:08:24;;;;;;;3.60;2.85;;;8.40;99.90;;;;;;5130694;27;20042;-63
2024/03/02 01:10:50;;;;;;;4.05;2.55;;;8.50;99.90;;;;;;5123303;27;20082;-62
2024/03/02 01:13:15;;;;;;;3.22;2.92;;;8.40;99.90;;;;;;5128272;27;20525;-63
2024/03/02 01:15:41;;;;;;;4.97;2.85;;;8.40;99.90;;;;;;5125105;27;20113;-63
2024/03/02 01:18:07;;;;;;;5.35;2.75;;;8.50;99.90;;;;;;5131988;27;20789;-64
2024/03/02 01:20:33;;;;;;;3.67;2.78;;;8.40;99.90;;;;;;5130054;27;20425;-63
2024/03/02 01:22:59;;;;;;;2.88;2.45;;;8.40;99.90;;;;;;5124071;27;20042;-62
2024/03/02 01:25:25;;;;;;;3.03;2.72;;;8.40;99.90;;;;;;5123502;27;20031;-62
2024/03/02 01:27:50;;;;;;;4.35;3.10;;;8.40;99.90;;;;;;5122222;27;20114;-63
2024/03/02 01:30:16;;;;;;;5.25;2.85;;;8.40;99.90;;;;;;5128036;27;20103;-63
2024/03/02 01:32:42;;;;;;;5.20;3.05;;;8.40;99.90;;;;;;5121802;27;20644;-63
2024/03/02 01:35:08;;;;;;;4.95;3.20;;;8.40;99.90;;;;;;5129469;27;20049;-62
2024/03/02 01:37:34;;;;;;;4.95;2.80;;;8.40;99.90;;;;;;5128986;27;20214;-62
2024/03/02 01:40:00;;;;;;;4.15;2.97;;;8.40;99.90;;;;;;5119575;27;20282;-63
2024/03/02 01:42:26;;;;;;;4.80;3.25;;;8.40;99.90;;;;;;5124100;27;20502;-63
2024/03/02 01:44:52;;;;;;;3.92;2.95;;;8.40;99.90;;;;;;5122610;27;20043;-62
2024/03/02 01:47:18;;;;;;;4.88;3.50;;;8.40;99.90;;;;;;5120716;27;20035;-62
2024/03/02 01:49:43;;;;;;;4.85;3.10;;;8.40;99.90;;;;;;5111400;27;20085;-63
2024/03/02 01:52:10;;;;;;;4.07;2.85;;;8.40;99.90;;;;;;5110440;27;20605;-62
2024/03/02 01:54:36;;;;;;;4.63;3.38;;;8.40;99.90;;;;;;5107333;27;20039;-63
2024/03/02 01:57:02;;;;;;;5.05;2.90;;;8.40;99.90;;;;;;5112487;27;20420;-63
2024/03/02 01:59:28;;;;;;;3.15;2.70;;;8.40;99.90;;;;;;5118924;27;20448;-63
2024/03/02 02:01:53;;;;;;;5.00;2.80;;;8.40;99.90;;;;;;5121810;27;20063;-63
2024/03/02 02:04:22;;;;;;;3.55;2.78;;;8.50;99.90;;;;;;5120913;27;20034;-63
2024/03/02 02:06:48;;;;;;;3.75;2.72;;;8.50;99.90;;;;;;5119321;27;20038;-64
2024/03/02 02:09:14;;;;;;;7.63;3.22;;;8.50;99.90;;;;;;5123078;27;20489;-62
2024/03/02 02:11:40;;;;;;;5.95;3.28;;;8.60;99.90;;;;;;5107945;27;20194;-62
2024/03/02 02:14:06;;;;;;;4.75;3.10;;;8.60;99.90;;;;;;5117439;27;20488;-63
2024/03/02 02:16:32;;;;;;;5.47;2.90;;;8.60;99.90;;;;;;5116495;27;20096;-63
2024/03/02 02:18:58;;;;;;;5.43;3.00;;;8.70;99.90;;;;;;5116936;27;20531;-64
2024/03/02 02:21:26;;;;;;;4.43;3.00;;;8.70;99.90;;;;;;5115412;27;20071;-63
2024/03/02 02:23:51;;;;;;;4.07;2.85;;;8.70;99.90;;;;;;5109608;27;20047;-62
2024/03/02 02:26:17;;;;;;;4.10;3.15;;;8.70;99.90;;;;;;5117383;27;20042;-63
2024/03/02 02:28:47;;;;;;;4.63;3.00;;;8.70;99.90;;;;;;5114151;27;20455;-62
2024/03/02 02:31:16;;;;;;;3.90;2.92;;;8.70;99.90;;;;;;5116925;27;20034;-62
2024/03/02 02:33:42;;;;;;;;;;;8.70;99.90;;;;;;5116766;27;20039;-62
2024/03/02 02:36:10;;;;;;;4.72;3.20;;;8.60;99.90;;;;;;5124550;27;19930;-62
2024/03/02 02:38:40;;;;;;;4.50;2.85;;;8.70;99.90;;;;;;5116760;27;20423;-63
2024/03/02 02:41:06;;;;;;;3.88;2.72;;;8.70;99.90;;;;;;5119297;27;20489;-62
2024/03/02 02:43:31;;;;;;;5.55;3.20;;;8.70;99.90;;;;;;5122893;27;20039;-62
2024/03/02 02:45:57;;;;;;;3.22;2.80;;;8.70;99.90;;;;;;5115866;27;20046;-62
2024/03/02 02:48:23;;;;;;;3.35;2.63;;;8.80;99.90;;;;;;5115439;27;20087;-62
2024/03/02 02:50:49;;;;;;;4.35;2.65;;;8.80;99.90;;;;;;5115605;27;20027;-62
2024/03/02 02:53:14;;;;;;;4.57;2.50;;;8.80;99.90;;;;;;5122199;27;20757;-63
2024/03/02 02:55:41;;;;;;;4.93;2.42;;;8.80;99.90;;;;;;5111649;27;20394;-63
2024/03/02 02:58:07;;;;;;;6.88;3.17;;;8.90;99.90;;;;;;5115495;27;20083;-63
2024/03/02 03:00:32;;;;;;;3.08;2.40;;;8.90;99.90;;;;;;5115527;27;20043;-62
2024/03/02 03:02:58;;;;;;;3.88;2.45;;;8.90;99.90;;;;;;5119340;27;20047;-62
2024/03/02 03:05:24;;;;;;;3.45;2.22;;;9.00;99.90;;;;;;5122121;27;20051;-62
2024/03/02 03:07:50;;;;;;;3.65;2.60;;;9.00;99.90;;;;;;5114440;27;20031;-62
2024/03/02 03:10:16;;;;;;;4.10;2.67;;;9.00;99.90;;;;;;5118878;27;20369;-63
2024/03/02 03:12:43;;;;;;;3.25;2.67;;;9.10;99.90;;;;;;5120128;27;20383;-63
2024/03/02 03:15:09;;;;;;;4.68;2.90;;;9.10;99.90;;;;;;5116478;27;20034;-63
2024/03/02 03:17:37;;;;;;;3.25;2.17;;;9.10;99.90;;;;;;5120248;27;20210;-63
2024/03/02 03:20:04;;;;;;;3.80;2.33;;;9.10;99.90;;;;;;5119588;27;20040;-62
2024/03/02 03:22:31;;;;;;;3.38;2.40;;;9.20;99.90;;;;;;5119041;27;20485;-62
2024/03/02 03:24:57;;;;;;;3.63;2.38;;;9.10;99.90;;;;;;5112064;27;20531;-62
2024/03/02 03:27:23;;;;;;;4.18;2.33;;;9.10;99.90;;;;;;5109635;27;20248;-62
2024/03/02 03:29:48;;;;;;;4.35;2.72;;;9.10;99.90;;;;;;5117366;27;20039;-62
2024/03/02 03:32:14;;;;;;;3.63;2.25;;;9.10;99.90;;;;;;5111904;27;20053;-62
2024/03/02 03:34:40;;;;;;;6.13;2.50;;;9.10;99.90;;;;;;5123124;27;20803;-62
2024/03/02 03:37:06;;;;;;;3.22;2.25;;;9.00;99.90;;;;;;5132434;27;20047;-63
2024/03/02 03:39:35;;;;;;;3.53;2.60;;;9.00;99.90;;;;;;5120965;27;20045;-62
2024/03/02 03:42:01;;;;;;;3.33;2.10;;;9.00;99.90;;;;;;5121898;27;20039;-62
2024/03/02 03:44:26;;;;;;;3.13;2.10;;;8.90;99.90;;;;;;5122228;27;20501;-62
2024/03/02 03:46:52;;;;;;;5.45;2.53;;;8.90;99.90;;;;;;5114671;27;20521;-62
2024/03/02 03:49:18;;;;;;;3.38;2.03;;;9.00;99.90;;;;;;5111007;27;20379;-62
2024/03/02 03:51:44;;;;;;;2.83;2.20;;;8.90;99.90;;;;;;5114925;27;20098;-62
2024/03/02 03:54:11;;;;;;;2.88;2.17;;;8.90;99.90;;;;;;5114890;27;20039;-62
2024/03/02 03:56:37;;;;;;;3.38;2.28;;;8.90;99.90;;;;;;5122386;27;20043;-62
2024/03/02 03:59:04;;;;;;;4.05;2.33;;;8.90;99.90;;;;;;5108376;27;20108;-63
2024/03/02 04:01:31;;;;;;;3.55;2.25;;;8.90;99.90;;;;;;5121065;27;20043;-63
2024/03/02 04:03:57;;;;;;;5.65;2.08;;;8.80;99.90;;;;;;5119441;27;20050;-62
2024/03/02 04:06:23;;;;;;;3.08;2.17;;;8.90;99.90;;;;;;5116137;27;20043;-63
2024/03/02 04:08:49;;;;;;;2.88;2.22;;;8.90;99.90;;;;;;5111519;27;20070;-63
2024/03/02 04:11:15;;;;;;;3.33;2.35;;;8.90;99.90;;;;;;5117208;27;20118;-64
2024/03/02 04:13:41;;;;;;;2.30;2.03;;;8.90;99.90;;;;;;5120362;27;20038;-62
2024/03/02 04:16:06;;;;;;;5.90;2.50;;;8.90;99.90;;;;;;5115993;27;20088;-62
2024/03/02 04:18:32;;;;;;;2.40;2.15;;;8.90;99.90;;;;;;5116877;27;20035;-62
2024/03/02 04:21:01;;;;;;;3.38;2.25;;;8.80;99.90;;;;;;5115182;27;20051;-61
2024/03/02 04:23:27;;;;;;;2.33;1.95;;;8.80;99.90;;;;;;5112657;27;20044;-63
2024/03/02 04:25:53;;;;;;;4.22;2.38;;;8.80;99.90;;;;;;5113726;27;20046;-62
2024/03/02 04:28:18;;;;;;;2.75;2.35;;;8.80;99.90;;;;;;5109944;28;20444;-62
2024/03/02 04:30:44;;;;;;;2.38;2.17;;;8.80;99.90;;;;;;5118422;27;20073;-62
2024/03/02 04:33:10;;;;;;;4.38;2.40;;;8.80;99.90;;;;;;5108501;27;20418;-62
2024/03/02 04:35:38;;;;;;;3.88;2.30;;;8.80;99.90;;;;;;5122478;27;20126;-62
2024/03/02 04:38:04;;;;;;;6.28;2.42;;;8.80;99.90;;;;;;5117921;27;20350;-62
2024/03/02 04:40:30;;;;;;;3.45;2.38;;;8.80;99.90;;;;;;5111665;27;20039;-61
2024/03/02 04:42:56;;;;;;;3.95;2.25;;;8.80;99.90;;;;;;5121787;27;20066;-62
2024/03/02 04:45:21;;;;;;;4.55;2.58;;;8.80;99.90;;;;;;5111084;28;20579;-63
2024/03/02 04:47:47;;;;;;;3.92;2.38;;;8.80;99.90;;;;;;5120767;27;20558;-62
2024/03/02 04:50:13;;;;;;;4.25;2.17;;;8.80;99.90;;;;;;5105931;28;20039;-62
2024/03/02 04:52:39;;;;;;;3.50;2.30;;;8.80;99.90;;;;;;5111644;27;20126;-62
2024/03/02 04:55:24;;;;;;;3.63;2.40;;;8.80;99.90;;;;;;5117190;27;20134;-62
2024/03/02 04:57:54;;;;;;;5.38;2.78;;;8.80;99.90;;;;;;5116242;28;20039;-62
2024/03/02 05:00:20;;;;;;;5.10;2.13;;;8.80;99.90;;;;;;5117382;28;20035;-62
2024/03/02 05:02:46;;;;;;;6.30;2.63;;;8.80;99.90;;;;;;5121507;27;20038;-62
2024/03/02 05:05:12;;;;;;;3.13;2.60;;;8.80;99.90;;;;;;5115716;27;20051;-62
2024/03/02 05:07:38;;;;;;;3.85;2.33;;;8.70;99.90;;;;;;5119866;27;20031;-62
2024/03/02 05:10:03;;;;;;;3.80;2.22;;;8.70;99.90;;;;;;5112073;27;20075;-62
2024/03/02 05:15:12;;;;;;;2.97;2.40;;;8.70;99.90;;;;;;5119667;27;20534;-62
2024/03/02 05:17:38;;;;;;;3.75;2.30;;;8.70;99.90;;;;;;5110917;28;20039;-62
2024/03/02 05:20:05;;;;;;;3.25;2.10;;;8.70;99.90;;;;;;5117006;27;20586;-62
2024/03/02 05:22:31;;;;;;;3.85;2.50;;;8.70;99.90;;;;;;5116077;27;20047;-62
2024/03/02 05:24:59;;;;;;;3.10;2.08;;;8.70;99.90;;;;;;5119672;27;20039;-64
2024/03/02 05:27:25;;;;;;;3.05;2.20;;;8.70;99.90;;;;;;5108776;27;20053;-62
2024/03/02 05:29:50;;;;;;;4.40;2.45;;;8.60;99.90;;;;;;5112925;27;20035;-62
2024/03/02 05:32:16;;;;;;;3.33;2.28;;;8.60;99.90;;;;;;5117566;27;20118;-62
2024/03/02 05:34:42;;;;;;;6.38;2.67;;;8.60;99.90;;;;;;5119838;27;20065;-62
2024/03/02 05:37:07;;;;;;;3.80;2.42;;;8.60;99.90;;;;;;5120337;27;20035;-62
2024/03/02 05:39:33;;;;;;;3.03;2.70;;;8.60;99.90;;;;;;5112613;28;20088;-62
2024/03/02 05:41:59;;;;;;;3.08;2.17;;;8.60;99.90;;;;;;5126767;27;20035;-62
2024/03/02 05:44:24;;;;;;;3.63;2.50;;;8.60;99.90;;;;;;5115878;27;20046;-62
2024/03/02 05:46:50;;;;;;;3.92;2.42;;;8.60;99.90;;;;;;5119958;27;20406;-62
2024/03/02 05:49:16;;;;;;;4.10;2.47;;;8.60;99.90;;;;;;5121116;27;20453;-62
2024/03/02 05:51:42;;;;;;;2.78;2.53;;;8.60;99.90;;;;;;5110535;27;20123;-62
2024/03/02 05:54:07;;;;;;;3.28;2.20;;;8.60;99.90;;;;;;5114406;27;20059;-61
2024/03/02 05:56:33;;;;;;;4.40;3.00;;;8.60;99.90;;;;;;5126544;27;20038;-62
2024/03/02 05:59:15;;;;;;;4.40;2.60;;;8.60;99.90;;;;;;5130136;27;20483;-62
2024/03/02 06:01:46;;;;;;;4.57;2.58;;;8.60;99.90;;;;;;5130327;27;20587;-62
2024/03/02 06:04:13;;;;;;;4.97;2.80;;;8.60;99.90;;;;;;5129998;27;20111;-62
2024/03/02 06:06:39;;;;;;;5.47;2.40;;;8.60;99.90;;;;;;5126099;27;20644;-62
2024/03/02 06:09:07;;;;;;;4.90;3.08;;;8.60;99.90;;;;;;5127058;27;20096;-62
2024/03/02 06:11:34;;;;;;;4.15;3.22;;;8.60;99.90;;;;;;5128808;27;20571;-62
2024/03/02 06:14:00;;;;;;;7.28;2.90;;;8.50;99.90;;;;;;5126714;27;20043;-62
2024/03/02 06:16:25;;;;;;;4.57;3.00;;;8.50;99.90;;;;;;5128996;27;20089;-62
2024/03/02 06:18:53;;;;;;;5.18;3.15;;;8.60;99.90;;;;;;5127647;27;20153;-62
2024/03/02 06:21:19;;;;;;;6.32;2.83;;;8.60;99.90;;;;;;5129014;27;20071;-62
2024/03/02 06:23:46;;;;;;;3.75;2.50;;;8.60;99.90;;;;;;5122371;27;20509;-63
2024/03/02 06:26:12;;;;;;;4.32;2.63;;;8.60;99.90;;;;;;5129149;27;20085;-62
2024/03/02 06:28:38;;;;;;;2.85;2.40;;;8.50;99.90;;;;;;5126686;27;20039;-62
2024/03/02 06:31:04;;;;;;;3.75;2.60;;;8.50;99.90;;;;;;5127994;27;20039;-62
2024/03/02 06:33:30;;;;;;;5.60;2.33;;;8.50;99.90;;;;;;5127151;27;20035;-61
2024/03/02 06:35:55;;;;;;;5.07;2.20;;;8.50;99.90;;;;;;5129114;27;20376;-62
2024/03/02 06:38:21;;;;;;;6.70;2.40;;;8.50;99.90;;;;;;5128903;27;20035;-61
2024/03/02 06:40:47;;;;;;;5.05;2.40;;;8.50;99.90;;;;;;5126530;27;20039;-64
2024/03/02 06:43:13;;;;;;;3.63;2.35;;;8.50;99.90;;;;;;5127793;27;20042;-62
2024/03/02 06:45:38;;;;;;;4.88;2.55;;;8.40;99.90;;;;;;5128031;27;20080;-62
2024/03/02 06:48:05;;;;;;;4.38;2.67;;;8.40;99.90;;;;;;5129274;27;20039;-62
2024/03/02 06:50:31;;;;;;;4.65;2.47;;;8.40;99.90;;;;;;5128376;27;20039;-62
2024/03/02 06:52:57;;;;;;;3.83;2.42;;;8.40;99.90;;;;;;5125895;27;20393;-62
2024/03/02 06:55:24;;;;;;;3.08;1.92;;;8.40;99.90;;;;;;5127377;27;20035;-62
2024/03/02 06:57:50;;;;;;;4.18;2.10;;;8.40;99.90;;;;;;5127455;27;20117;-61
2024/03/02 07:00:17;;;;;;;3.92;2.38;;;8.40;99.90;;;;;;5129386;27;20492;-62
2024/03/02 07:02:44;;;;;;;4.43;2.25;;;8.40;99.90;;;;;;5125152;27;20537;-62
2024/03/02 07:05:11;;;;;;;4.32;2.45;;;8.40;99.90;;;;;;5129158;27;20043;-62
2024/03/02 07:07:37;;;;;;;2.88;2.40;;;8.50;99.90;;;;;;5127621;27;20213;-61
2024/03/02 07:10:07;;;;;;;5.82;2.47;;;8.50;99.90;;;;;;5128617;27;20031;-62
2024/03/02 07:12:33;;;;;;;2.70;2.17;;;8.60;99.90;;;;;;5125736;27;20034;-62
2024/03/02 07:17:31;;;;;;;4.55;2.17;;;8.50;99.90;;;;;;5126509;27;20099;-62
2024/03/02 07:19:57;;;;;;;3.03;1.60;;;8.40;99.90;;;;;;5127117;27;20054;-62
2024/03/02 07:22:23;;;;;;;2.97;1.83;;;8.40;99.90;;;;;;5128490;27;20864;-62
2024/03/02 07:24:49;;;;;;;2.20;1.48;;;8.40;99.90;;;;;;5126990;27;20099;-62
2024/03/02 07:27:16;;;;;;;2.22;1.80;;;8.50;99.90;;;;;;5123803;27;20044;-62
2024/03/02 07:29:43;;;;;;;3.70;1.70;;;8.50;99.90;;;;;;5127764;27;20432;-62
2024/03/02 07:32:09;;;;;;;1.92;1.13;;;8.50;99.90;;;;;;5125297;27;20122;-62
2024/03/02 07:34:35;;;;;;;2.92;1.60;;;8.50;99.90;;;;;;5126241;27;20047;-61
2024/03/02 07:37:01;;;;;;;2.28;1.52;;;8.60;99.90;;;;;;5124232;27;20043;-62
2024/03/02 07:39:28;;;;;;;2.97;1.42;;;8.70;99.90;;;;;;5123585;27;20430;-62
2024/03/02 07:41:53;;;;;;;2.28;1.70;;;8.90;99.90;;;;;;5126481;27;20062;-63
2024/03/02 07:44:20;;;;;;;3.70;2.10;;;9.10;99.90;;;;;;5126567;27;20039;-62
2024/03/02 07:46:46;;;;;;;4.72;2.15;;;9.20;99.90;;;;;;5127924;27;20043;-62
2024/03/02 07:49:14;;;;;;;2.95;2.03;;;9.50;99.90;;;;;;5127290;27;20071;-62
2024/03/02 07:51:39;;;;;;;3.22;2.10;;;9.70;99.90;;;;;;5125833;27;20103;-62
2024/03/02 07:54:06;;;;;;;3.53;1.98;;;10.00;99.90;;;;;;5125728;27;20047;-62
2024/03/02 07:56:32;;;;;;;3.47;2.17;;;10.20;99.90;;;;;;5124572;27;20180;-63
2024/03/02 07:59:00;;;;;;;4.88;2.08;;;10.50;99.90;;;;;;5126384;27;20042;-62
2024/03/02 08:01:31;;;;;;;3.50;2.17;;;10.70;99.90;;;;;;5126882;27;20049;-63
2024/03/02 08:04:03;;;;;;;4.18;2.05;;;10.80;99.90;;;;;;5123842;27;20078;-63
2024/03/02 08:06:29;;;;;;;2.88;2.42;;;11.10;99.90;;;;;;5126854;27;20065;-63
2024/03/02 08:08:59;;;;;;;3.97;2.25;;;11.40;99.90;;;;;;5128215;27;20035;-62
2024/03/02 08:11:25;;;;;;;2.38;1.77;;;11.50;99.90;;;;;;5126575;27;20046;-62
2024/03/02 08:13:52;;;;;;;4.10;2.10;;;11.70;99.90;;;;;;5126667;27;20382;-62
2024/03/02 08:16:21;;;;;;;3.13;1.63;;;11.90;99.90;;;;;;5124928;27;20064;-62
2024/03/02 08:18:50;;;;;;;2.40;1.48;;;12.00;99.90;;;;;;5125031;27;20070;-62
2024/03/02 08:21:16;;;;;;;1.80;1.48;;;12.00;99.90;;;;;;5125060;27;20070;-62
2024/03/02 08:23:45;;;;;;;2.55;1.60;;;12.30;99.90;;;;;;5125287;27;20142;-62
2024/03/02 08:26:11;;;;;;;;;;;12.40;99.90;;;;;;5124931;27;20130;-62
2024/03/02 08:28:38;;;;;;;1.77;1.40;;;12.70;99.90;;;;;;5126667;27;19919;-62
2024/03/02 08:31:04;;;;;;;2.40;1.50;;;12.90;99.90;;;;;;5126170;27;20043;-62
2024/03/02 08:33:30;;;;;;;1.30;1.20;;;12.90;99.90;;;;;;5124854;27;20039;-62
2024/03/02 08:35:56;;;;;;;2.03;1.33;;;13.00;99.90;;;;;;5125734;27;20043;-62
2024/03/02 08:38:22;;;;;;;3.38;1.48;;;12.80;99.90;;;;;;5127705;27;20042;-62
2024/03/02 08:40:49;;;;;;;1.75;1.08;;;13.00;99.90;;;;;;5127615;27;20646;-62
2024/03/02 08:43:15;;;;;;;1.88;1.30;;;12.80;99.90;;;;;;5126493;27;20039;-62
2024/03/02 08:45:41;;;;;;;1.35;1.02;;;12.60;99.90;;;;;;5126227;27;20039;-62
2024/03/02 08:48:10;;;;;;;2.40;1.15;;;12.40;99.90;;;;;;5127349;27;20046;-62
2024/03/02 08:50:36;;;;;;;3.67;1.10;;;12.10;99.90;;;;;;5120964;27;20043;-62
2024/03/02 08:53:03;;;;;;;2.17;1.10;;;11.90;99.90;;;;;;5127429;27;20511;-62
2024/03/02 08:55:29;;;;;;;1.65;0.70;;;11.80;99.90;;;;;;5127193;27;20107;-62
2024/03/02 08:57:55;;;;;;;2.70;1.10;;;11.60;99.90;;;;;;5124970;27;20058;-62
2024/03/02 09:00:22;;;;;;;2.65;0.90;;;11.30;99.90;;;;;;5127467;27;20050;-62
2024/03/02 09:02:48;;;;;;;0.98;0.68;;;11.40;99.90;;;;;;5121370;27;20043;-63
2024/03/02 09:05:14;;;;;;;1.05;0.55;;;11.30;99.90;;;;;;5127161;27;20041;-62
2024/03/02 09:07:40;;;;;;;3.20;0.80;;;11.10;99.90;;;;;;5124322;27;20046;-62
2024/03/02 09:10:07;;;;;;;1.38;0.85;;;11.20;99.90;;;;;;5127154;27;20031;-62
2024/03/02 09:12:32;;;;;;;1.73;1.10;;;11.20;99.90;;;;;;5125670;27;20621;-63
2024/03/02 09:15:00;;;;;;;2.22;0.82;;;11.20;99.90;;;;;;5127805;27;20038;-62
2024/03/02 09:17:25;;;;;;;1.83;0.68;;;11.50;99.90;;;;;;5123319;27;20490;-62
2024/03/02 09:19:52;;;;;;;3.05;0.70;;;11.40;99.90;;;;;;5126379;27;20085;-62
2024/03/02 09:22:21;;;;;;;1.05;0.63;;;11.60;99.90;;;;;;5126289;27;20074;-62
2024/03/02 09:24:47;;;;;;;3.83;1.05;;;11.40;99.90;;;;;;5128937;27;20074;-62
2024/03/02 09:27:12;;;;;;;2.05;0.73;;;11.50;99.90;;;;;;5124644;27;20539;-62
2024/03/02 09:29:38;;;;;;;1.20;0.50;;;11.40;99.90;;;;;;5120344;27;20043;-63
2024/03/02 09:32:06;;;;;;;1.80;0.50;;;11.20;99.90;;;;;;5120517;27;20501;-62
2024/03/02 09:34:32;;;;;;;3.67;0.73;;;11.20;99.90;;;;;;5119310;27;20412;-62
2024/03/02 09:36:58;;;;;;;2.65;0.65;;;11.30;99.90;;;;;;5118309;27;20100;-62
2024/03/02 09:39:25;;;;;;;2.97;0.90;;;11.20;99.90;;;;;;5125002;27;20526;-63
2024/03/02 09:41:51;;;;;;;1.40;0.70;;;11.20;99.90;;;;;;5119070;27;20050;-63
2024/03/02 09:44:17;;;;;;;2.67;0.80;;;11.20;99.90;;;;;;5120922;27;21092;-63
2024/03/02 09:46:43;;;;;;;1.92;0.70;;;11.20;99.90;;;;;;5122514;27;20043;-63
2024/03/02 09:49:11;;;;;;;3.30;1.05;;;11.10;99.90;;;;;;5122747;27;20408;-63
2024/03/02 09:51:37;;;;;;;4.53;1.17;;;11.00;99.90;;;;;;5126309;27;20400;-63
2024/03/02 09:54:03;;;;;;;2.08;0.90;;;11.10;99.90;;;;;;5128980;27;20034;-63
2024/03/02 09:56:29;;;;;;;3.92;1.17;;;11.00;99.90;;;;;;5127772;27;20043;-63
2024/03/02 09:58:55;;;;;;;3.90;1.10;;;11.10;99.90;;;;;;5126957;27;20049;-63
2024/03/02 10:01:21;;;;;;;1.40;0.98;;;11.40;99.90;;;;;;5128935;27;20443;-62
2024/03/02 10:03:50;;;;;;;2.35;1.05;;;11.60;99.90;;;;;;5128899;27;20039;-63
2024/03/02 10:06:22;;;;;;;1.45;0.70;;;11.70;99.90;;;;;;5126900;27;20045;-62
2024/03/02 10:08:48;;;;;;;3.33;1.20;;;11.90;99.90;;;;;;5128010;27;20027;-62
2024/03/02 10:11:37;;;;;;;3.22;1.27;;;11.80;99.90;;;;;;5126899;27;20050;-62
2024/03/02 10:14:08;;;;;;;2.47;0.88;;;11.80;99.90;;;;;;5128167;27;20091;-62
2024/03/02 10:16:44;;;;;;;2.78;0.90;;;11.80;99.90;;;;;;5128384;27;20035;-62
2024/03/02 10:19:21;;;;;;;4.10;0.93;;;11.60;99.90;;;;;;5130652;27;20157;-62
2024/03/02 10:21:49;;;;;;;3.05;1.00;;;11.50;99.90;;;;;;5127599;27;20446;-62
2024/03/02 10:24:16;;;;;;;0.98;0.70;;;11.50;99.90;;;;;;5121404;27;20038;-62
2024/03/02 10:26:42;;;;;;;1.70;0.85;;;11.40;99.90;;;;;;5119527;27;20642;-62
2024/03/02 10:29:12;;;;;;;2.42;0.90;;;11.40;99.90;;;;;;5125882;27;20042;-62
2024/03/02 10:31:39;;;;;;;1.30;0.80;;;11.40;99.90;;;;;;5130771;27;20031;-62
2024/03/02 10:34:05;;;;;;;2.90;0.90;;;11.40;99.90;;;;;;5126873;27;20042;-62
2024/03/02 10:36:34;;;;;;;2.00;0.75;;;11.50;99.90;;;;;;5127182;27;20042;-62
2024/03/02 10:39:05;;;;;;;2.63;1.33;;;11.40;99.90;;;;;;5125344;27;20439;-62
2024/03/02 10:41:35;;;;;;;3.47;1.20;;;11.40;99.90;;;;;;5126825;27;20049;-61
2024/03/02 10:44:08;;;;;;;3.17;1.00;;;11.40;99.90;;;;;;5123865;27;20505;-62
2024/03/02 10:46:36;;;;;;;1.20;0.98;;;11.40;99.90;;;;;;5125822;27;20491;-62
2024/03/02 10:49:04;;;;;;;3.40;1.38;;;11.40;99.90;;;;;;5126661;27;20050;-61
2024/03/02 10:51:36;;;;;;;1.77;1.23;;;11.40;99.90;;;;;;5126349;27;20422;-62
2024/03/02 10:54:03;;;;;;;2.47;1.13;;;11.70;99.90;;;;;;5128946;27;20553;-62
2024/03/02 10:56:30;;;;;;;2.90;1.08;;;12.00;99.90;;;;;;5120774;27;20053;-62
2024/03/02 10:59:02;;;;;;;1.65;0.93;;;12.10;99.90;;;;;;5123083;27;20077;-61
2024/03/02 11:01:31;;;;;;;2.80;1.00;;;12.30;99.90;;;;;;5121812;27;20525;-62
2024/03/02 11:03:58;;;;;;;3.15;0.90;;;12.30;99.90;;;;;;5124890;27;20043;-62
2024/03/02 11:06:26;;;;;;;3.67;1.50;;;12.50;99.90;;;;;;5127659;27;20099;-62
2024/03/02 11:08:58;;;;;;;2.22;0.65;;;12.70;99.90;;;;;;5125596;27;20479;-61
2024/03/02 11:11:32;;;;;;;3.80;0.90;;;13.00;99.90;;;;;;5130017;27;20070;-62
2024/03/02 11:14:08;;;;;;;4.18;1.30;;;13.20;99.90;;;;;;5126583;27;20031;-62
2024/03/02 11:16:38;;;;;;;2.70;1.13;;;13.30;99.90;;;;;;5127311;27;20058;-63
2024/03/02 11:19:12;;;;;;;3.53;0.80;;;13.50;99.90;;;;;;5126806;27;20076;-62
2024/03/02 11:21:42;;;;;;;3.72;1.40;;;13.60;99.90;;;;;;5127893;27;20126;-62
2024/03/02 11:24:44;;;;;;;4.05;1.15;;;13.60;99.90;;;;;;5123934;27;20238;-62
2024/03/02 11:27:12;;;;;;;1.55;1.02;;;13.80;99.90;;;;;;5127612;27;20410;-62
2024/03/02 11:29:40;;;;;;;3.65;1.30;;;13.90;99.90;;;;;;5126104;27;20523;-62
2024/03/02 11:32:17;;;;;;;1.98;1.10;;;14.00;99.90;;;;;;5125791;27;20043;-62
2024/03/02 11:34:45;;;;;;;2.30;1.10;;;13.60;99.90;;;;;;5126883;27;20039;-61
2024/03/02 11:37:11;;;;;;;3.15;1.10;;;13.40;99.90;;;;;;5125200;27;20376;-62
2024/03/02 11:39:39;;;;;;;2.10;1.02;;;13.50;99.90;;;;;;5125738;27;20125;-62
2024/03/02 11:42:11;;;;;;;4.22;0.88;;;13.70;99.90;;;;;;5120625;27;20035;-62
2024/03/02 11:44:37;;;;;;;5.15;1.15;;;13.90;99.90;;;;;;5119267;27;21588;-63
2024/03/02 11:47:07;;;;;;;3.08;1.08;;;13.70;99.90;;;;;;5125858;27;20062;-62
2024/03/02 11:49:41;;;;;;;2.58;0.63;;;13.80;99.90;;;;;;5125562;27;20542;-62
2024/03/02 11:52:11;;;;;;;3.90;0.82;;;14.00;99.90;;;;;;5123247;27;20074;-62
2024/03/02 11:54:46;;;;;;;2.05;0.70;;;14.00;99.90;;;;;;5126937;27;20035;-62
2024/03/02 11:57:16;;;;;;;2.08;0.82;;;13.70;99.90;;;;;;5124464;27;20043;-61
2024/03/02 11:59:43;;;;;;;2.13;1.08;;;13.70;99.90;;;;;;5126371;27;20041;-62
2024/03/02 12:02:20;;;;;;;0.98;0.70;;;13.50;99.90;;;;;;5125350;27;20042;-62
2024/03/02 12:04:48;;;;;;;4.60;1.17;;;13.40;99.90;;;;;;5127069;27;20162;-62
2024/03/02 12:07:23;;;;;;;4.40;1.10;;;13.60;99.90;;;;;;5127979;27;20034;-62
2024/03/02 12:10:03;;;;;;;2.60;0.82;;;13.60;99.90;;;;;;5126516;27;20284;-61
2024/03/02 12:12:29;;;;;;;4.40;1.00;;;13.80;99.90;;;;;;5125450;27;20031;-61
2024/03/02 12:14:55;;;;;;;2.30;0.80;;;13.80;99.90;;;;;;5129158;27;20035;-61
2024/03/02 12:17:22;;;;;;;2.28;0.98;;;13.90;99.90;;;;;;5127248;27;20047;-62
2024/03/02 12:19:48;;;;;;;2.65;1.20;;;13.90;99.90;;;;;;5127043;27;20077;-61
2024/03/02 12:22:15;;;;;;;1.60;0.90;;;14.10;99.90;;;;;;5123997;27;20049;-61
2024/03/02 12:24:41;;;;;;;1.90;1.10;;;14.60;99.90;;;;;;5124878;27;20043;-61
2024/03/02 12:27:08;;;;;;;1.77;0.80;;;14.30;99.90;;;;;;5126248;27;20423;-61
2024/03/02 12:29:34;;;;;;;2.42;1.10;;;14.20;99.90;;;;;;5124266;27;20051;-61
2024/03/02 12:32:02;;;;;;;4.65;1.35;;;14.30;99.90;;;;;;5125718;27;20058;-61
2024/03/02 12:34:28;;;;;;;1.98;1.00;;;14.10;99.90;;;;;;5124249;27;20042;-61
2024/03/02 12:36:53;;;;;;;3.90;1.08;;;14.00;99.90;;;;;;5125165;27;20039;-61
2024/03/02 12:39:20;;;;;;;1.60;1.02;;;14.20;99.90;;;;;;5126401;27;20124;-61
2024/03/02 12:41:53;;;;;;;3.47;1.13;;;14.20;99.90;;;;;;5124113;27;20079;-61
2024/03/02 12:44:20;;;;;;;1.30;0.68;;;14.10;99.90;;;;;;5125867;27;20035;-61
2024/03/02 12:46:46;;;;;;;3.38;1.20;;;14.20;99.90;;;;;;5127126;27;20047;-62
2024/03/02 12:49:15;;;;;;;1.73;0.80;;;14.10;99.90;;;;;;5125683;27;20040;-62
2024/03/02 12:51:42;;;;;;;;;;;14.10;99.90;;;;;;5127612;27;20110;-62
2024/03/02 12:54:11;;;;;;;2.03;1.27;;;14.40;99.90;;;;;;5127464;27;19973;-62
2024/03/02 12:56:45;;;;;;;3.08;1.05;;;14.30;99.90;;;;;;5118265;27;20066;-62
2024/03/02 12:59:23;;;;;;;3.50;1.40;;;14.50;99.90;;;;;;5124622;27;20117;-62